createdAt,value
2023-02-15T00:01:11.946Z,102327.82
2023-02-15T00:03:46.075Z,102321.51
2023-02-15T00:06:20.272Z,102316.42
2023-02-15T00:08:53.855Z,102321.20
2023-02-15T00:11:41.220Z,102318.27
2023-02-15T00:14:16.043Z,102312.39
2023-02-15T00:16:50.800Z,102311.66
2023-02-15T00:19:25.190Z,102304.38
2023-02-15T00:21:58.580Z,102304.59
2023-02-15T00:24:32.698Z,102301.61
2023-02-15T00:27:06.254Z,102299.06
2023-02-15T00:29:46.242Z,102294.89
2023-02-15T00:32:20.027Z,102290.52
2023-02-15T00:34:54.088Z,102291.56
2023-02-15T00:37:27.899Z,102285.92
2023-02-15T00:40:02.154Z,102284.27
2023-02-15T00:42:35.628Z,102278.58
2023-02-15T00:45:10.270Z,102277.52
2023-02-15T00:47:44.794Z,102275.95
2023-02-15T00:50:18.242Z,102276.78
2023-02-15T00:52:51.887Z,102270.05
2023-02-15T00:55:25.505Z,102267.77
2023-02-15T00:57:59.758Z,102259.10
2023-02-15T01:00:33.358Z,102261.27
2023-02-15T01:03:07.482Z,102259.82
2023-02-15T01:05:41.543Z,102262.89
2023-02-15T01:08:15.318Z,102267.11
2023-02-15T01:10:49.593Z,102273.02
2023-02-15T01:13:23.797Z,102275.98
2023-02-15T01:16:01.193Z,102271.40
2023-02-15T01:18:36.578Z,102269.52
2023-02-15T01:21:17.597Z,102270.88
2023-02-15T01:23:51.608Z,102270.43
2023-02-15T01:26:28.248Z,102270.33
2023-02-15T01:29:01.998Z,102262.93
2023-02-15T01:31:34.778Z,102261.63
2023-02-15T01:34:10.580Z,102258.16
2023-02-15T01:36:45.430Z,102247.60
2023-02-15T01:39:18.959Z,102246.13
2023-02-15T01:41:52.815Z,102243.27
2023-02-15T01:44:53.474Z,102242.19
2023-02-15T01:47:33.880Z,102238.09
2023-02-15T01:50:15.371Z,102236.59
2023-02-15T01:52:55.393Z,102228.59
2023-02-15T01:55:32.979Z,102223.98
2023-02-15T01:58:06.879Z,102228.36
2023-02-15T02:00:45.057Z,102230.45
2023-02-15T02:03:19.930Z,102227.83
2023-02-15T02:05:54.070Z,102226.45
2023-02-15T02:08:28.389Z,102225.89
2023-02-15T02:11:01.751Z,102223.77
2023-02-15T02:13:35.251Z,102216.20
2023-02-15T02:16:18.049Z,102215.73
2023-02-15T02:18:58.559Z,102213.59
2023-02-15T02:21:54.882Z,102212.97
2023-02-15T02:24:53.330Z,102207.95
2023-02-15T02:27:39.584Z,102207.14
2023-02-15T02:30:41.089Z,102204.38
2023-02-15T02:33:37.357Z,102207.01
2023-02-15T02:36:17.624Z,102204.61
2023-02-15T02:39:07.454Z,102201.14
2023-02-15T02:41:48.552Z,102195.52
2023-02-15T02:44:28.428Z,102196.75
2023-02-15T02:47:09.803Z,102191.71
2023-02-15T02:49:45.196Z,102188.47
2023-02-15T02:52:42.689Z,102187.02
2023-02-15T02:55:20.656Z,102188.20
2023-02-15T02:57:55.961Z,102190.91
2023-02-15T03:00:32.856Z,102190.25
2023-02-15T03:03:10.234Z,102176.09
2023-02-15T03:05:48.244Z,102175.79
2023-02-15T03:08:24.718Z,102170.30
2023-02-15T03:11:00.517Z,102170.44
2023-02-15T03:13:35.345Z,102169.06
2023-02-15T03:16:31.566Z,102163.92
2023-02-15T03:19:10.739Z,102166.31
2023-02-15T03:21:51.001Z,102165.91
2023-02-15T03:24:27.621Z,102164.05
2023-02-15T03:27:02.537Z,102162.17
2023-02-15T03:29:38.333Z,102156.75
2023-02-15T03:32:18.208Z,102156.64
2023-02-15T03:34:52.947Z,102156.73
2023-02-15T03:37:35.784Z,102147.04
2023-02-15T03:40:41.422Z,102145.14
2023-02-15T03:43:20.456Z,102143.14
2023-02-15T03:45:58.126Z,102140.48
2023-02-15T03:48:39.304Z,102140.25
2023-02-15T03:51:41.391Z,102137.48
2023-02-15T03:54:39.882Z,102135.52
2023-02-15T03:57:33.026Z,102128.73
2023-02-15T04:00:26.102Z,102129.33
2023-02-15T04:03:10.900Z,102129.98
2023-02-15T04:05:45.514Z,102127.64
2023-02-15T04:08:19.438Z,102126.94
2023-02-15T04:10:57.794Z,102125.73
2023-02-15T04:13:36.008Z,102130.41
2023-02-15T04:16:09.832Z,102127.62
2023-02-15T04:19:01.744Z,102130.20
2023-02-15T04:21:53.910Z,102128.05
2023-02-15T04:24:44.267Z,102121.33
2023-02-15T04:27:18.449Z,102123.09
2023-02-15T04:29:52.700Z,102127.44
2023-02-15T04:32:25.744Z,102124.77
2023-02-15T04:34:59.103Z,102123.10
2023-02-15T04:37:33.801Z,102122.65
2023-02-15T04:40:08.974Z,102117.42
2023-02-15T04:42:43.846Z,102113.66
2023-02-15T04:45:19.503Z,102113.34
2023-02-15T04:47:53.237Z,102109.89
2023-02-15T04:50:26.640Z,102102.98
2023-02-15T04:53:01.269Z,102101.30
2023-02-15T04:55:35.364Z,102100.91
2023-02-15T04:58:09.879Z,102097.88
2023-02-15T05:00:43.775Z,102094.78
2023-02-15T05:03:19.327Z,102091.58
2023-02-15T05:05:54.037Z,102091.94
2023-02-15T05:08:28.327Z,102089.84
2023-02-15T05:11:02.732Z,102087.83
2023-02-15T05:13:37.203Z,102089.83
2023-02-15T05:16:11.924Z,102086.30
2023-02-15T05:18:46.171Z,102080.53
2023-02-15T05:21:19.669Z,102079.48
2023-02-15T05:23:54.090Z,102079.23
2023-02-15T05:26:46.738Z,102075.19
2023-02-15T05:29:19.762Z,102073.14
2023-02-15T05:31:53.228Z,102076.18
2023-02-15T05:34:26.675Z,102076.98
2023-02-15T05:36:59.299Z,102075.08
2023-02-15T05:39:32.159Z,102075.21
2023-02-15T05:42:05.630Z,102071.20
2023-02-15T05:44:38.515Z,102069.13
2023-02-15T05:47:11.769Z,102077.92
2023-02-15T05:49:45.014Z,102082.05
2023-02-15T05:52:18.352Z,102084.35
2023-02-15T05:54:52.060Z,102078.70
2023-02-15T05:57:25.150Z,102077.73
2023-02-15T05:59:58.677Z,102080.42
2023-02-15T06:02:31.960Z,102076.89
2023-02-15T06:05:05.685Z,102074.90
2023-02-15T06:07:39.031Z,102077.80
2023-02-15T06:10:13.350Z,102074.77
2023-02-15T06:12:46.931Z,102084.02
2023-02-15T06:15:20.381Z,102078.51
2023-02-15T06:17:54.832Z,102079.92
2023-02-15T06:20:28.309Z,102081.05
2023-02-15T06:23:02.721Z,102080.31
2023-02-15T06:25:37.252Z,102078.25
2023-02-15T06:28:11.829Z,102078.02
2023-02-15T06:30:44.885Z,102077.11
2023-02-15T06:33:18.330Z,102078.80
2023-02-15T06:35:51.737Z,102077.98
2023-02-15T06:38:24.614Z,102085.55
2023-02-15T06:40:57.789Z,102082.48
2023-02-15T06:43:31.652Z,102083.69
2023-02-15T06:46:05.391Z,102083.63
2023-02-15T06:48:39.382Z,102078.48
2023-02-15T06:51:13.946Z,102073.84
2023-02-15T06:53:47.158Z,102074.79
2023-02-15T06:56:21.145Z,102066.93
2023-02-15T06:58:54.989Z,102065.54
2023-02-15T07:01:29.143Z,102066.46
2023-02-15T07:04:02.567Z,102065.11
2023-02-15T07:06:38.138Z,102059.88
2023-02-15T07:09:11.197Z,102058.61
2023-02-15T07:12:01.801Z,102051.05
2023-02-15T07:14:35.017Z,102044.04
2023-02-15T07:17:18.234Z,102044.83
2023-02-15T07:20:00.908Z,102045.54
2023-02-15T07:22:35.918Z,102046.10
2023-02-15T07:25:10.778Z,102042.85
2023-02-15T07:27:43.810Z,102041.70
2023-02-15T07:30:19.879Z,102041.61
2023-02-15T07:33:09.927Z,102033.33
2023-02-15T07:35:49.726Z,102032.91
2023-02-15T07:38:23.990Z,102030.17
2023-02-15T07:41:02.330Z,102029.25
2023-02-15T07:43:36.755Z,102030.83
2023-02-15T07:46:13.231Z,102033.14
2023-02-15T07:48:47.136Z,102040.14
2023-02-15T07:51:20.416Z,102042.12
2023-02-15T07:53:54.399Z,102048.41
2023-02-15T07:56:27.757Z,102043.18
2023-02-15T07:59:04.778Z,102040.08
2023-02-15T08:01:40.008Z,102036.38
2023-02-15T08:04:14.097Z,102035.59
2023-02-15T08:06:47.148Z,102037.38
2023-02-15T08:09:20.187Z,102040.53
2023-02-15T08:11:53.667Z,102036.52
2023-02-15T08:14:27.251Z,102038.92
2023-02-15T08:17:04.315Z,102040.24
2023-02-15T08:19:37.779Z,102039.65
2023-02-15T08:22:15.800Z,102042.27
2023-02-15T08:24:47.038Z,102043.08
2023-02-15T08:27:20.291Z,102044.60
2023-02-15T08:29:53.717Z,102049.34
2023-02-15T08:32:27.552Z,102046.55
2023-02-15T08:35:01.622Z,102044.02
2023-02-15T08:37:34.694Z,102038.48
2023-02-15T08:40:08.473Z,102032.66
2023-02-15T08:42:41.681Z,102029.83
2023-02-15T08:45:15.233Z,102030.10
2023-02-15T08:47:48.186Z,102021.93
2023-02-15T08:50:22.075Z,102016.46
2023-02-15T08:52:55.589Z,102013.48
2023-02-15T08:55:29.045Z,102009.20
2023-02-15T08:58:03.787Z,102004.73
2023-02-15T09:00:36.838Z,102004.02
2023-02-15T09:03:09.878Z,101998.33
2023-02-15T09:05:43.030Z,101996.23
2023-02-15T09:08:16.843Z,101999.34
2023-02-15T09:10:50.249Z,101995.23
2023-02-15T09:13:23.384Z,101991.31
2023-02-15T09:16:05.398Z,101984.36
2023-02-15T09:18:42.244Z,101984.27
2023-02-15T09:21:17.357Z,101978.90
2023-02-15T09:23:52.825Z,101976.02
2023-02-15T09:26:27.503Z,101976.70
2023-02-15T09:29:02.233Z,101975.46
2023-02-15T09:31:37.836Z,101974.90
2023-02-15T09:34:10.932Z,101974.09
2023-02-15T09:36:44.976Z,101975.65
2023-02-15T09:39:20.382Z,101973.79
2023-02-15T09:42:36.542Z,101976.30
2023-02-15T09:45:26.988Z,101975.17
2023-02-15T09:48:35.866Z,101977.22
2023-02-15T09:51:27.692Z,101976.04
2023-02-15T09:54:17.162Z,101972.59
2023-02-15T09:56:57.755Z,101971.07
2023-02-15T09:59:38.633Z,101962.88
2023-02-15T10:02:23.721Z,101957.44
2023-02-15T10:05:10.761Z,101959.17
2023-02-15T10:08:08.631Z,101953.55
2023-02-15T10:10:52.789Z,101956.76
2023-02-15T10:13:40.081Z,101953.76
2023-02-15T10:16:25.432Z,101954.48
2023-02-15T10:19:06.872Z,101957.11
2023-02-15T10:21:51.199Z,101957.25
2023-02-15T10:24:48.911Z,101957.31
2023-02-15T10:27:25.511Z,101956.15
2023-02-15T10:30:10.786Z,101947.89
2023-02-15T10:32:54.160Z,101946.73
2023-02-15T10:35:35.070Z,101955.08
2023-02-15T10:38:21.980Z,101951.95
2023-02-15T10:41:08.559Z,101957.84
2023-02-15T10:44:09.927Z,101952.27
2023-02-15T10:47:05.567Z,101945.91
2023-02-15T10:49:58.863Z,101942.41
2023-02-15T10:52:43.092Z,101948.61
2023-02-15T10:55:24.643Z,101946.20
2023-02-15T10:58:06.925Z,101944.39
2023-02-15T11:00:46.399Z,101939.80
2023-02-15T11:03:35.253Z,101936.23
2023-02-15T11:06:14.767Z,101936.13
2023-02-15T11:08:51.007Z,101930.79
2023-02-15T11:11:30.172Z,101927.59
2023-02-15T11:14:07.872Z,101928.10
2023-02-15T11:16:47.411Z,101931.05
2023-02-15T11:19:26.412Z,101934.96
2023-02-15T11:22:04.172Z,101934.66
2023-02-15T11:24:42.697Z,101935.66
2023-02-15T11:27:26.869Z,101928.19
2023-02-15T11:30:04.220Z,101926.23
2023-02-15T11:32:40.431Z,101923.77
2023-02-15T11:35:24.974Z,101927.26
2023-02-15T11:38:03.052Z,101925.02
2023-02-15T11:40:44.259Z,101922.64
2023-02-15T11:43:25.068Z,101919.16
2023-02-15T11:46:00.704Z,101919.93
2023-02-15T11:48:36.257Z,101914.89
2023-02-15T11:51:13.017Z,101905.10
2023-02-15T11:53:46.880Z,101899.86
2023-02-15T11:56:23.090Z,101896.36
2023-02-15T11:59:00.155Z,101890.96
2023-02-15T12:01:38.418Z,101896.09
2023-02-15T12:04:19.872Z,101894.86
2023-02-15T12:07:02.190Z,101892.84
2023-02-15T12:09:42.877Z,101892.50
2023-02-15T12:12:30.911Z,101885.73
2023-02-15T12:15:06.743Z,101889.56
2023-02-15T12:17:45.475Z,101890.27
2023-02-15T12:20:32.683Z,101888.20
2023-02-15T12:23:09.452Z,101888.89
2023-02-15T12:25:46.645Z,101888.46
2023-02-15T12:28:39.663Z,101888.48
2023-02-15T12:31:31.697Z,101886.08
2023-02-15T12:34:07.692Z,101888.30
2023-02-15T12:36:48.742Z,101889.27
2023-02-15T12:39:29.159Z,101886.73
2023-02-15T12:42:18.178Z,101884.11
2023-02-15T12:45:02.809Z,101878.83
2023-02-15T12:47:38.201Z,101876.11
2023-02-15T12:50:18.304Z,101871.42
2023-02-15T12:52:53.720Z,101863.97
2023-02-15T12:55:31.291Z,101855.95
2023-02-15T12:58:20.077Z,101854.38
2023-02-15T13:01:05.635Z,101854.00
2023-02-15T13:03:40.642Z,101851.05
2023-02-15T13:06:18.679Z,101849.79
2023-02-15T13:08:52.540Z,101847.94
2023-02-15T13:11:31.155Z,101842.95
2023-02-15T13:14:06.043Z,101843.80
2023-02-15T13:16:41.171Z,101845.83
2023-02-15T13:19:20.425Z,101845.67
2023-02-15T13:21:56.651Z,101846.34
2023-02-15T13:24:32.992Z,101840.67
2023-02-15T13:27:15.612Z,101834.10
2023-02-15T13:29:53.059Z,101836.61
2023-02-15T13:32:33.349Z,101833.56
2023-02-15T13:35:17.615Z,101827.52
2023-02-15T13:38:10.715Z,101823.80
2023-02-15T13:40:52.338Z,101821.30
2023-02-15T13:43:37.637Z,101823.14
2023-02-15T13:46:31.225Z,101823.92
2023-02-15T13:49:20.656Z,101818.27
2023-02-15T13:52:06.902Z,101814.88
2023-02-15T13:55:07.405Z,101812.58
2023-02-15T13:58:21.827Z,101808.68
2023-02-15T14:01:07.274Z,101807.16
2023-02-15T14:04:10.213Z,101801.12
2023-02-15T14:07:25.805Z,101802.94
2023-02-15T14:10:18.484Z,101797.95
2023-02-15T14:13:10.147Z,101797.11
2023-02-15T14:15:49.962Z,101795.77
2023-02-15T14:18:30.770Z,101799.95
2023-02-15T14:21:10.759Z,101803.46
2023-02-15T14:23:56.977Z,101804.27
2023-02-15T14:26:39.897Z,101800.24
2023-02-15T14:29:27.005Z,101795.92
2023-02-15T14:32:06.111Z,101792.83
2023-02-15T14:34:46.990Z,101795.71
2023-02-15T14:37:26.652Z,101796.01
2023-02-15T14:40:24.620Z,101794.50
2023-02-15T14:43:03.702Z,101794.39
2023-02-15T14:45:45.521Z,101799.14
2023-02-15T14:48:24.702Z,101794.54
2023-02-15T14:50:57.776Z,101789.78
2023-02-15T14:53:40.227Z,101787.06
2023-02-15T14:56:23.971Z,101783.90
2023-02-15T14:59:16.193Z,101778.59
2023-02-15T15:01:58.941Z,101780.44
2023-02-15T15:04:38.796Z,101779.52
2023-02-15T15:07:22.736Z,101781.39
2023-02-15T15:10:17.885Z,101778.23
2023-02-15T15:12:51.969Z,101778.05
2023-02-15T15:18:49.482Z,101771.84
2023-02-15T15:21:52.822Z,101770.98
2023-02-15T15:24:52.604Z,101772.36
2023-02-15T15:27:44.767Z,101775.36
2023-02-15T15:31:03.306Z,101776.91
2023-02-15T15:34:10.090Z,101772.92
2023-02-15T15:37:15.553Z,101779.14
2023-02-15T15:40:23.509Z,101783.42
2023-02-15T15:43:20.065Z,101790.48
2023-02-15T15:46:16.731Z,101784.81
2023-02-15T15:48:50.883Z,101785.76
2023-02-15T15:51:30.499Z,101782.85
2023-02-15T15:54:05.681Z,101777.98
2023-02-15T15:56:41.257Z,101781.78
2023-02-15T15:59:25.664Z,101775.48
2023-02-15T16:02:00.152Z,101776.70
2023-02-15T16:04:36.508Z,101767.59
2023-02-15T16:07:28.660Z,101763.75
2023-02-15T16:10:04.648Z,101761.12
2023-02-15T16:12:40.068Z,101760.88
2023-02-15T16:15:20.699Z,101764.09
2023-02-15T16:17:57.390Z,101759.10
2023-02-15T16:20:33.228Z,101758.43
2023-02-15T16:23:23.426Z,101752.20
2023-02-15T16:26:08.740Z,101751.08
2023-02-15T16:28:41.891Z,101751.92
2023-02-15T16:31:18.725Z,101752.05
2023-02-15T16:33:55.708Z,101744.44
2023-02-15T16:36:30.541Z,101747.08
2023-02-15T16:39:23.472Z,101743.93
2023-02-15T16:42:03.559Z,101751.85
2023-02-15T16:44:43.065Z,101749.19
2023-02-15T16:47:23.702Z,101747.34
2023-02-15T16:50:01.749Z,101745.98
2023-02-15T16:52:33.115Z,101748.98
2023-02-15T16:55:09.683Z,101751.42
2023-02-15T16:57:46.744Z,101756.37
2023-02-15T17:00:28.459Z,101757.00
2023-02-15T17:03:06.093Z,101755.69
2023-02-15T17:05:48.453Z,101752.86
2023-02-15T17:08:28.483Z,101752.52
2023-02-15T17:11:21.085Z,101758.14
2023-02-15T17:14:19.234Z,101759.79
2023-02-15T17:16:57.724Z,101753.19
2023-02-15T17:19:34.853Z,101755.75
2023-02-15T17:22:09.526Z,101753.69
2023-02-15T17:24:44.883Z,101749.13
2023-02-15T17:27:24.347Z,101751.52
2023-02-15T17:30:01.659Z,101749.20
2023-02-15T17:32:37.759Z,101748.84
2023-02-15T17:35:22.869Z,101755.65
2023-02-15T17:38:05.955Z,101754.88
2023-02-15T17:40:40.591Z,101751.59
2023-02-15T17:43:13.675Z,101746.31
2023-02-15T17:45:51.464Z,101741.67
2023-02-15T17:48:32.450Z,101744.10
2023-02-15T17:51:07.789Z,101747.95
2023-02-15T17:53:41.222Z,101753.85
2023-02-15T17:56:14.616Z,101756.42
2023-02-15T17:58:47.518Z,101751.05
2023-02-15T18:01:40.744Z,101747.38
2023-02-15T18:04:33.896Z,101745.55
2023-02-15T18:07:24.161Z,101745.14
2023-02-15T18:10:13.863Z,101743.61
2023-02-15T18:12:47.587Z,101735.63
2023-02-15T18:15:20.536Z,101744.03
2023-02-15T18:17:53.803Z,101746.89
2023-02-15T18:20:29.551Z,101748.48
2023-02-15T18:23:06.164Z,101740.86
2023-02-15T18:25:40.471Z,101732.80
2023-02-15T18:28:14.277Z,101727.04
2023-02-15T18:30:47.615Z,101730.48
2023-02-15T18:33:35.476Z,101725.12
2023-02-15T18:36:16.479Z,101721.55
2023-02-15T18:38:48.882Z,101720.73
2023-02-15T18:41:23.611Z,101719.54
2023-02-15T18:43:57.982Z,101716.71
2023-02-15T18:46:31.652Z,101716.48
2023-02-15T18:49:04.963Z,101717.53
2023-02-15T18:51:40.813Z,101714.39
2023-02-15T18:54:23.049Z,101711.21
2023-02-15T18:56:59.238Z,101710.65
2023-02-15T18:59:33.200Z,101712.90
2023-02-15T19:02:07.722Z,101711.59
2023-02-15T19:04:41.106Z,101710.92
2023-02-15T19:07:23.001Z,101706.64
2023-02-15T19:09:58.598Z,101708.59
2023-02-15T19:12:32.164Z,101712.48
2023-02-15T19:15:05.389Z,101709.64
2023-02-15T19:17:38.461Z,101710.20
2023-02-15T19:20:17.107Z,101700.12
2023-02-15T19:22:51.564Z,101702.46
2023-02-15T19:25:31.239Z,101699.84
2023-02-15T19:28:06.899Z,101700.30
2023-02-15T19:30:42.162Z,101702.58
2023-02-15T19:33:21.394Z,101701.16
2023-02-15T19:35:58.290Z,101698.48
2023-02-15T19:38:35.741Z,101701.39
2023-02-15T19:41:11.390Z,101704.13
2023-02-15T19:43:44.704Z,101698.05
2023-02-15T19:46:20.974Z,101697.77
2023-02-15T19:48:54.541Z,101702.00
2023-02-15T19:51:28.485Z,101698.11
2023-02-15T19:54:02.100Z,101700.06
2023-02-15T19:56:36.501Z,101703.18
2023-02-15T19:59:17.364Z,101698.19
2023-02-15T20:01:50.957Z,101695.94
2023-02-15T20:04:26.520Z,101689.05
2023-02-15T20:07:02.883Z,101689.01
2023-02-15T20:09:41.521Z,101684.79
2023-02-15T20:12:25.769Z,101681.95
2023-02-15T20:14:58.895Z,101675.33
2023-02-15T20:17:31.986Z,101675.46
2023-02-15T20:20:05.760Z,101668.90
2023-02-15T20:22:39.815Z,101666.20
2023-02-15T20:25:18.785Z,101672.44
2023-02-15T20:27:55.104Z,101676.23
2023-02-15T20:30:31.190Z,101681.11
2023-02-15T20:33:05.632Z,101684.75
2023-02-15T20:35:40.542Z,101685.52
2023-02-15T20:38:21.485Z,101684.01
2023-02-15T20:41:12.019Z,101682.52
2023-02-15T20:43:46.983Z,101682.78
2023-02-15T20:46:23.304Z,101686.09
2023-02-15T20:48:56.397Z,101688.26
2023-02-15T20:51:29.496Z,101685.61
2023-02-15T20:54:02.739Z,101684.09
2023-02-15T20:56:38.256Z,101678.19
2023-02-15T20:59:27.645Z,101678.92
2023-02-15T21:02:03.318Z,101676.92
2023-02-15T21:04:37.673Z,101681.96
2023-02-15T21:07:13.092Z,101684.66
2023-02-15T21:09:46.556Z,101683.45
2023-02-15T21:12:22.589Z,101684.33
2023-02-15T21:14:56.197Z,101681.80
2023-02-15T21:17:30.204Z,101683.39
2023-02-15T21:20:04.433Z,101685.86
2023-02-15T21:22:38.300Z,101690.52
2023-02-15T21:25:16.436Z,101687.27
2023-02-15T21:27:50.164Z,101690.29
2023-02-15T21:30:25.604Z,101690.79
2023-02-15T21:33:00.250Z,101692.67
2023-02-15T21:35:34.712Z,101690.54
2023-02-15T21:38:10.221Z,101697.85
2023-02-15T21:40:45.054Z,101700.60
2023-02-15T21:43:40.331Z,101698.57
2023-02-15T21:46:36.609Z,101693.21
2023-02-15T21:49:11.366Z,101693.66
2023-02-15T21:52:03.115Z,101693.52
2023-02-15T21:54:36.978Z,101686.44
2023-02-15T21:57:14.138Z,101688.30
2023-02-15T21:59:49.539Z,101690.14
2023-02-15T22:02:32.137Z,101685.64
2023-02-15T22:05:09.177Z,101690.41
2023-02-15T22:07:46.443Z,101686.05
2023-02-15T22:10:22.651Z,101687.58
2023-02-15T22:12:57.097Z,101687.30
2023-02-15T22:15:34.827Z,101691.14
2023-02-15T22:18:08.677Z,101688.31
2023-02-15T22:20:42.910Z,101690.94
2023-02-15T22:23:16.905Z,101689.17
2023-02-15T22:25:56.689Z,101692.75
2023-02-15T22:28:35.089Z,101690.55
2023-02-15T22:31:09.193Z,101693.34
2023-02-15T22:33:42.916Z,101699.02
2023-02-15T22:36:27.055Z,101694.05
2023-02-15T22:39:00.618Z,101699.02
2023-02-15T22:41:34.828Z,101696.17
2023-02-15T22:44:08.773Z,101691.70
2023-02-15T22:46:43.118Z,101688.69
2023-02-15T22:49:18.115Z,101687.55
2023-02-15T22:51:52.642Z,101684.48
2023-02-15T22:54:26.405Z,101681.27
2023-02-15T22:57:01.556Z,101679.26
2023-02-15T22:59:38.562Z,101691.07
2023-02-15T23:02:16.615Z,101687.20
2023-02-15T23:04:47.919Z,101690.67
2023-02-15T23:07:23.684Z,101695.78
2023-02-15T23:09:57.222Z,101691.52
2023-02-15T23:12:53.642Z,101686.89
2023-02-15T23:15:26.861Z,101684.39
2023-02-15T23:18:00.620Z,101681.55
2023-02-15T23:20:34.460Z,101675.61
2023-02-15T23:23:10.956Z,101675.34
2023-02-15T23:25:44.284Z,101673.38
2023-02-15T23:28:26.661Z,101678.44
2023-02-15T23:31:01.140Z,101677.46
2023-02-15T23:33:37.354Z,101673.90
2023-02-15T23:36:17.020Z,101677.48
2023-02-15T23:38:50.611Z,101678.99
2023-02-15T23:41:26.698Z,101674.52
2023-02-15T23:44:02.919Z,101674.04
2023-02-15T23:46:42.316Z,101673.38
2023-02-15T23:49:18.715Z,101672.38
2023-02-15T23:51:54.636Z,101671.19
2023-02-15T23:54:28.907Z,101675.79
2023-02-15T23:57:04.585Z,101670.86
2023-02-15T23:59:38.157Z,101670.96
